createdAt,value
2023-04-18T00:02:07.389Z,9.70
2023-04-18T00:05:48.167Z,9.30
2023-04-18T00:09:20.859Z,10.10
2023-04-18T00:12:58.923Z,9.20
2023-04-18T00:16:38.398Z,9.70
2023-04-18T00:20:14.323Z,8.10
2023-04-18T00:23:52.268Z,8.50
2023-04-18T00:27:29.515Z,9.00
2023-04-18T00:31:06.837Z,9.30
2023-04-18T00:34:45.350Z,9.40
2023-04-18T00:38:22.284Z,8.50
2023-04-18T00:42:01.325Z,8.50
2023-04-18T00:45:37.674Z,9.60
2023-04-18T00:49:15.762Z,8.70
2023-04-18T00:52:54.322Z,8.60
2023-04-18T00:56:33.008Z,9.40
2023-04-18T01:00:10.061Z,9.60
2023-04-18T01:03:46.584Z,9.50
2023-04-18T01:07:24.148Z,8.90
2023-04-18T01:11:01.987Z,9.80
2023-04-18T01:14:43.074Z,10.70
2023-04-18T01:18:18.102Z,9.20
2023-04-18T01:21:54.521Z,9.70
2023-04-18T01:25:33.717Z,9.90
2023-04-18T01:29:10.352Z,10.40
2023-04-18T01:32:47.799Z,9.60
2023-04-18T01:36:27.018Z,10.00
2023-04-18T01:40:03.776Z,10.70
2023-04-18T01:43:40.845Z,11.30
2023-04-18T01:47:18.499Z,10.50
2023-04-18T01:50:58.137Z,11.40
2023-04-18T01:54:33.692Z,10.60
2023-04-18T02:01:49.197Z,11.90
2023-04-18T02:05:27.754Z,10.20
2023-04-18T02:09:04.679Z,12.00
2023-04-18T02:12:42.009Z,10.90
2023-04-18T02:16:20.008Z,10.90
2023-04-18T02:19:57.416Z,12.00
2023-04-18T02:23:35.184Z,11.70
2023-04-18T02:27:13.951Z,11.70
2023-04-18T02:30:50.601Z,11.80
2023-04-18T02:34:28.023Z,11.60
2023-04-18T02:38:05.896Z,11.40
2023-04-18T02:41:43.363Z,10.40
2023-04-18T02:45:21.206Z,10.60
2023-04-18T02:48:58.640Z,11.50
2023-04-18T02:52:36.857Z,11.00
2023-04-18T02:56:17.356Z,10.40
2023-04-18T02:59:51.950Z,10.70
2023-04-18T03:03:29.646Z,10.60
2023-04-18T03:07:07.425Z,11.20
2023-04-18T03:10:45.070Z,9.60
2023-04-18T03:14:22.349Z,10.30
2023-04-18T03:18:00.409Z,9.60
2023-04-18T03:21:37.773Z,10.10
2023-04-18T03:25:16.119Z,9.40
2023-04-18T03:28:53.323Z,9.40
2023-04-18T03:32:34.311Z,9.60
2023-04-18T03:36:09.272Z,9.40
2023-04-18T03:39:46.401Z,9.40
2023-04-18T03:43:23.954Z,10.10
2023-04-18T03:47:01.713Z,9.10
2023-04-18T03:50:39.511Z,9.40
2023-04-18T03:54:17.503Z,8.60
2023-04-18T03:57:55.086Z,8.90
2023-04-18T04:01:32.786Z,8.50
2023-04-18T04:05:10.092Z,9.10
2023-04-18T04:08:47.697Z,8.20
2023-04-18T04:12:25.959Z,9.10
2023-04-18T04:16:03.898Z,8.40
2023-04-18T04:19:40.724Z,8.30
2023-04-18T04:23:18.850Z,10.10
2023-04-18T04:26:56.385Z,8.40
2023-04-18T04:30:33.789Z,8.70
2023-04-18T04:34:12.261Z,9.00
2023-04-18T04:37:49.774Z,8.90
2023-04-18T04:41:27.897Z,8.10
2023-04-18T04:45:05.199Z,9.80
2023-04-18T04:48:42.561Z,9.70
2023-04-18T04:52:20.040Z,8.40
2023-04-18T04:55:58.676Z,9.80
2023-04-18T04:59:35.748Z,10.00
2023-04-18T05:03:13.165Z,8.70
2023-04-18T05:06:51.130Z,9.40
2023-04-18T05:10:28.320Z,9.10
2023-04-18T05:14:06.253Z,11.50
2023-04-18T05:17:43.708Z,9.70
2023-04-18T05:21:21.513Z,8.90
2023-04-18T05:24:58.753Z,10.40
2023-04-18T05:28:36.697Z,9.10
2023-04-18T05:32:19.123Z,8.60
2023-04-18T05:35:52.815Z,9.60
2023-04-18T05:39:29.962Z,8.40
2023-04-18T05:43:06.977Z,8.00
2023-04-18T05:46:45.996Z,8.00
2023-04-18T05:50:23.432Z,7.60
2023-04-18T05:54:00.626Z,7.80
2023-04-18T05:57:38.446Z,8.20
2023-04-18T06:01:16.461Z,7.30
2023-04-18T06:04:54.257Z,8.50
2023-04-18T06:08:31.209Z,8.10
2023-04-18T06:12:09.013Z,7.40
2023-04-18T06:15:46.555Z,7.20
2023-04-18T06:19:24.127Z,7.60
2023-04-18T06:23:01.771Z,7.70
2023-04-18T06:26:39.989Z,7.60
2023-04-18T06:30:17.202Z,7.10
2023-04-18T06:33:55.117Z,7.60
2023-04-18T06:37:32.477Z,6.70
2023-04-18T06:41:10.530Z,6.50
2023-04-18T06:44:47.927Z,6.80
2023-04-18T06:48:25.560Z,6.70
2023-04-18T06:52:03.195Z,6.90
2023-04-18T06:55:41.250Z,6.10
2023-04-18T06:59:19.609Z,6.50
2023-04-18T07:02:56.911Z,6.80
2023-04-18T07:06:35.096Z,6.70
2023-04-18T07:10:12.131Z,6.30
2023-04-18T07:13:49.645Z,7.00
2023-04-18T07:17:26.926Z,6.00
2023-04-18T07:21:43.265Z,6.60
2023-04-18T07:24:42.598Z,6.50
2023-04-18T07:28:39.037Z,7.20
2023-04-18T07:31:58.176Z,6.90
2023-04-18T07:35:36.334Z,6.60
2023-04-18T07:39:13.258Z,6.60
2023-04-18T07:42:50.829Z,5.50
2023-04-18T07:46:29.140Z,6.10
2023-04-18T07:50:06.993Z,7.80
2023-04-18T07:53:46.171Z,6.30
2023-04-18T07:57:21.500Z,6.20
2023-04-18T08:00:59.483Z,6.10
2023-04-18T08:04:37.023Z,5.80
2023-04-18T08:08:14.576Z,6.80
2023-04-18T08:11:52.097Z,5.60
2023-04-18T08:15:32.973Z,6.00
2023-04-18T08:19:07.684Z,5.60
2023-04-18T08:23:02.347Z,6.00
2023-04-18T08:26:22.835Z,6.10
2023-04-18T08:30:02.090Z,5.90
2023-04-18T08:33:38.288Z,6.30
2023-04-18T08:37:16.102Z,7.40
2023-04-18T08:40:53.516Z,7.20
2023-04-18T08:44:51.968Z,7.90
2023-04-18T08:48:16.369Z,7.30
2023-04-18T08:51:54.278Z,7.50
2023-04-18T08:55:24.504Z,7.50
2023-04-18T08:59:02.932Z,6.50
2023-04-18T09:02:47.271Z,6.90
2023-04-18T09:06:19.564Z,6.70
2023-04-18T09:09:57.406Z,6.40
2023-04-18T09:13:40.088Z,6.80
2023-04-18T09:17:13.380Z,6.70
2023-04-18T09:20:50.004Z,7.20
2023-04-18T09:24:27.285Z,6.20
2023-04-18T09:28:23.316Z,6.50
2023-04-18T09:32:01.523Z,6.20
2023-04-18T09:35:25.793Z,6.00
2023-04-18T09:38:57.365Z,5.90
2023-04-18T09:42:53.898Z,6.70
2023-04-18T09:46:12.733Z,6.90
2023-04-18T09:49:50.366Z,6.30
2023-04-18T09:53:29.356Z,5.70
2023-04-18T09:57:13.814Z,5.80
2023-04-18T10:00:44.969Z,5.20
2023-04-18T10:04:20.939Z,6.00
2023-04-18T10:07:59.617Z,6.30
2023-04-18T10:11:36.595Z,5.80
2023-04-18T10:15:16.053Z,7.00
2023-04-18T10:18:51.894Z,6.20
2023-04-18T10:22:28.884Z,6.20
2023-04-18T10:26:11.090Z,6.60
2023-04-18T10:29:52.080Z,6.20
2023-04-18T10:33:42.804Z,6.80
2023-04-18T10:37:06.498Z,6.50
2023-04-18T10:40:37.381Z,5.30
2023-04-18T10:44:23.218Z,5.60
2023-04-18T10:48:31.419Z,6.20
2023-04-18T10:51:32.594Z,5.80
2023-04-18T10:55:20.503Z,5.20
2023-04-18T10:58:52.394Z,5.00
2023-04-18T11:02:30.479Z,5.10
2023-04-18T11:06:03.988Z,5.20
2023-04-18T11:09:41.163Z,5.00
2023-04-18T11:13:19.124Z,4.70
2023-04-18T11:16:56.369Z,4.90
2023-04-18T11:20:46.339Z,4.30
2023-04-18T11:24:12.272Z,4.40
2023-04-18T11:27:55.227Z,4.40
2023-04-18T11:31:27.187Z,3.80
2023-04-18T11:35:05.760Z,4.00
2023-04-18T11:38:42.507Z,4.70
2023-04-18T11:42:20.774Z,3.60
2023-04-18T11:45:59.944Z,4.10
2023-04-18T11:49:35.477Z,4.10
2023-04-18T11:53:13.061Z,3.90
2023-04-18T11:56:50.958Z,3.30
2023-04-18T12:00:34.473Z,4.20
2023-04-18T12:04:08.597Z,4.00
2023-04-18T12:07:48.068Z,3.70
2023-04-18T12:11:21.771Z,4.40
2023-04-18T12:15:08.426Z,4.10
2023-04-18T12:18:37.059Z,4.40
2023-04-18T12:22:16.798Z,4.70
2023-04-18T12:26:00.158Z,4.10
2023-04-18T12:29:30.370Z,4.00
2023-04-18T12:33:09.420Z,4.10
2023-04-18T12:36:46.898Z,4.30
2023-04-18T12:40:24.601Z,4.50
2023-04-18T12:44:00.686Z,4.20
2023-04-18T12:47:39.700Z,4.30
2023-04-18T12:51:16.196Z,3.70
2023-04-18T12:54:53.695Z,4.10
2023-04-18T12:58:31.672Z,3.80
2023-04-18T13:02:09.446Z,4.20
2023-04-18T13:05:53.161Z,3.70
2023-04-18T13:09:24.504Z,4.00
2023-04-18T13:13:02.001Z,3.60
2023-04-18T13:16:41.635Z,3.20
2023-04-18T13:20:17.221Z,3.60
2023-04-18T13:23:55.079Z,3.40
2023-04-18T13:27:32.935Z,3.20
2023-04-18T13:31:10.592Z,3.90
2023-04-18T13:34:48.916Z,3.30
2023-04-18T13:38:27.727Z,3.20
2023-04-18T13:42:04.560Z,3.80
2023-04-18T13:45:41.712Z,3.10
2023-04-18T13:49:19.212Z,3.50
2023-04-18T13:52:56.720Z,3.40
2023-04-18T13:56:34.492Z,3.20
2023-04-18T14:00:14.509Z,3.00
2023-04-18T14:03:49.805Z,3.00
2023-04-18T14:07:27.585Z,3.00
2023-04-18T14:11:04.899Z,2.80
2023-04-18T14:19:13.280Z,3.20
2023-04-18T14:22:52.852Z,3.70
2023-04-18T14:26:28.204Z,3.70
2023-04-18T14:30:09.064Z,2.60
2023-04-18T14:33:43.389Z,2.80
2023-04-18T14:37:21.419Z,2.80
2023-04-18T14:40:59.206Z,3.20
2023-04-18T14:44:36.465Z,2.70
2023-04-18T14:48:33.012Z,2.60
2023-04-18T14:51:51.706Z,3.00
2023-04-18T14:55:29.701Z,2.30
2023-04-18T14:59:07.318Z,2.60
2023-04-18T15:02:45.051Z,2.50
2023-04-18T15:06:23.322Z,2.50
2023-04-18T15:10:00.504Z,2.60
2023-04-18T15:13:38.142Z,3.10
2023-04-18T15:17:15.898Z,3.10
2023-04-18T15:20:54.031Z,2.40
2023-04-18T15:24:31.374Z,2.60
2023-04-18T15:28:08.627Z,2.50
2023-04-18T15:31:47.210Z,2.60
2023-04-18T15:35:24.072Z,3.00
2023-04-18T15:39:06.952Z,3.00
2023-04-18T15:42:39.519Z,2.90
2023-04-18T15:46:17.501Z,2.80
2023-04-18T15:49:54.621Z,3.00
2023-04-18T15:53:32.718Z,3.30
2023-04-18T15:57:11.368Z,3.20
2023-04-18T16:01:07.272Z,2.90
2023-04-18T16:04:25.612Z,2.40
2023-04-18T16:08:03.312Z,3.10
2023-04-18T16:11:40.891Z,3.30
2023-04-18T16:15:18.803Z,2.70
2023-04-18T16:18:56.222Z,2.90
2023-04-18T16:22:34.105Z,2.60
2023-04-18T16:26:11.548Z,3.20
2023-04-18T16:29:49.350Z,3.10
2023-04-18T16:33:26.948Z,2.90
2023-04-18T16:37:04.476Z,3.90
2023-04-18T16:40:42.389Z,3.00
2023-04-18T16:44:20.076Z,3.10
2023-04-18T16:47:57.898Z,3.80
2023-04-18T16:51:37.289Z,2.90
2023-04-18T16:55:12.886Z,3.10
2023-04-18T16:58:50.765Z,3.10
2023-04-18T17:02:28.713Z,3.40
2023-04-18T17:06:06.366Z,2.80
2023-04-18T17:09:43.531Z,3.40
2023-04-18T17:13:27.076Z,3.10
2023-04-18T17:16:58.776Z,3.60
2023-04-18T17:20:37.277Z,2.60
2023-04-18T17:24:18.764Z,3.50
2023-04-18T17:27:52.173Z,3.40
2023-04-18T17:31:29.850Z,4.00
2023-04-18T17:35:08.378Z,3.20
2023-04-18T17:38:49.109Z,3.40
2023-04-18T17:42:22.830Z,3.60
2023-04-18T17:46:01.687Z,3.20
2023-04-18T17:49:39.034Z,3.10
2023-04-18T17:53:15.523Z,3.30
2023-04-18T17:56:53.387Z,2.90
2023-04-18T18:00:31.432Z,2.80
2023-04-18T18:04:08.910Z,3.30
2023-04-18T18:07:48.147Z,3.00
2023-04-18T18:11:24.307Z,2.70
2023-04-18T18:15:02.482Z,3.10
2023-04-18T18:18:39.961Z,3.10
2023-04-18T18:22:28.490Z,3.30
2023-04-18T18:25:55.020Z,3.00
2023-04-18T18:29:32.950Z,3.10
2023-04-18T18:33:10.331Z,2.80
2023-04-18T18:36:48.118Z,2.90
2023-04-18T18:40:25.653Z,2.90
2023-04-18T18:44:03.629Z,3.30
2023-04-18T18:47:41.467Z,2.70
2023-04-18T18:51:19.468Z,4.70
2023-04-18T18:54:56.470Z,2.80
2023-04-18T18:58:33.939Z,3.40
2023-04-18T19:02:12.067Z,2.50
2023-04-18T19:05:49.502Z,3.60
2023-04-18T19:09:27.653Z,3.90
2023-04-18T19:13:05.107Z,3.30
2023-04-18T19:16:42.617Z,3.00
2023-04-18T19:20:20.247Z,2.60
2023-04-18T19:23:57.656Z,3.30
2023-04-18T19:27:36.265Z,3.50
2023-04-18T19:31:13.133Z,3.00
2023-04-18T19:34:51.868Z,2.80
2023-04-18T19:38:28.495Z,2.80
2023-04-18T19:42:06.604Z,3.00
2023-04-18T19:45:43.898Z,2.30
2023-04-18T19:49:22.582Z,2.50
2023-04-18T19:52:59.191Z,3.00
2023-04-18T19:56:36.718Z,3.00
2023-04-18T20:00:16.190Z,2.50
2023-04-18T20:03:52.781Z,2.50
2023-04-18T20:07:30.862Z,2.80
2023-04-18T20:11:10.006Z,2.90
2023-04-18T20:14:45.604Z,2.60
2023-04-18T20:18:24.291Z,2.40
2023-04-18T20:22:01.323Z,2.40
2023-04-18T20:25:38.186Z,3.10
2023-04-18T20:29:16.558Z,2.50
2023-04-18T20:32:54.079Z,2.40
2023-04-18T20:36:31.449Z,2.70
2023-04-18T20:40:09.987Z,3.60
2023-04-18T20:43:47.125Z,2.30
2023-04-18T20:47:24.585Z,3.10
2023-04-18T20:51:02.231Z,2.30
2023-04-18T20:54:39.820Z,2.20
2023-04-18T20:58:17.453Z,2.70
2023-04-18T21:01:55.217Z,3.20
2023-04-18T21:05:33.127Z,2.50
2023-04-18T21:09:10.702Z,2.70
2023-04-18T21:12:48.218Z,2.50
2023-04-18T21:16:26.123Z,2.90
2023-04-18T21:20:03.767Z,2.20
2023-04-18T21:23:44.402Z,2.60
2023-04-18T21:27:18.805Z,2.30
2023-04-18T21:30:56.455Z,3.20
2023-04-18T21:34:34.098Z,3.30
2023-04-18T21:38:11.779Z,2.40
2023-04-18T21:41:49.388Z,2.30
2023-04-18T21:45:27.059Z,3.10
2023-04-18T21:49:04.656Z,3.60
2023-04-18T21:52:42.245Z,2.50
2023-04-18T21:56:20.246Z,2.90
2023-04-18T21:59:58.016Z,2.60
2023-04-18T22:03:37.066Z,2.30
2023-04-18T22:07:13.595Z,2.70
2023-04-18T22:10:50.730Z,3.00
2023-04-18T22:14:28.387Z,3.20
2023-04-18T22:18:08.987Z,3.20
2023-04-18T22:21:44.129Z,2.60
2023-04-18T22:25:21.158Z,2.80
2023-04-18T22:28:59.324Z,2.30
2023-04-18T22:32:55.659Z,3.80
2023-04-18T22:36:14.787Z,4.10
2023-04-18T22:39:52.065Z,2.90
2023-04-18T22:43:31.047Z,3.50
2023-04-18T22:47:08.393Z,3.40
2023-04-18T22:50:46.397Z,2.70
2023-04-18T22:54:22.923Z,4.30
2023-04-18T22:58:01.041Z,2.90
2023-04-18T23:01:38.206Z,3.50
2023-04-18T23:05:16.258Z,3.50
2023-04-18T23:08:53.268Z,3.20
2023-04-18T23:12:31.655Z,3.60
2023-04-18T23:16:09.132Z,3.20
2023-04-18T23:19:46.607Z,3.60
2023-04-18T23:23:24.198Z,3.10
2023-04-18T23:27:02.334Z,3.50
2023-04-18T23:30:39.616Z,4.00
2023-04-18T23:34:17.299Z,4.20
2023-04-18T23:37:54.836Z,3.90
2023-04-18T23:41:32.651Z,4.70
2023-04-18T23:45:10.870Z,4.80
2023-04-18T23:48:47.990Z,4.30
2023-04-18T23:52:25.660Z,3.50
2023-04-18T23:56:03.330Z,3.60
2023-04-18T23:59:41.056Z,3.70
